Clayton, Iowa
Current Conditions -  °F | °C
As of 2:55 PM on Tuesday 25 Nov 2014 (Local Time) from KPDC Reporting Station
Clear Clear  
Wind Chill: 25°   Ceiling: Unl
Heat Index: 25°   Visibility: 10mi
Dew Point: 14°   Wind: 0mph
Humidity: 64%   Direction: NA
Pressure: 30.11"   Gusts: NA
Location:  42.8882°N, 91.208°W
Report Text: KPDC 252055Z AUTO 00000KT 10SM CLR M04/M10 A3011 RMK AO2 T10411101
Loading
Personal Weather Stations






























Interactive Weather Map New forecast layout! Learn more

10-Day Weather Forecast

Advertisements
Track Severe Weather on mobile